Terminal Aerodrome Forecast
Issued by NWS

Home | Current Version | Previous Version | Text Only | Print | Product List | Glossary On
Versions: 1 2 3 4 5 6 7 8 9 10 11 12 13 14 15 16 17 18 19 20 21 22
000
FTUS46 KSEW 310600 AAA
TAFPAE
TAF AMD
KPAE 310627Z 3106/0106 00000KT 1/4SM FG VV001
     FM311800 VRB03KT 6SM HZ BKN200
      AMD NOT SKED=

USA.gov is the U.S. government's official web portal to all federal, state and local government web resources and services.